Pride — ZDFD7 — position and weather

sailwx.info

Track history (hours):
 
Tides and Currents Weather Stations Pressure Air Temp Water Temp Dewpoint Dewpoint Depression Visibility Wind Speed Wind Dir Waves Ship Positions

Pride

Last reported at 2017-Nov-18 12:30 UTC. Time now 2017-Nov-18 14:20 UTC.
Position N 53°35' E 000°03'.

Length 88 m; draft 4.9 m.

Type: Cargo ship. MMSI: 236166000.

Date/timePositionNaut miles runAvg speedWind from/ knotsBaromVisibWave heightAir tempDewpointWater temp
2017-Nov-18 12:30N 53°35' E 000°03'510.2
2017-Nov-18 12:00N 53°37' W 000°05'5 9.8
2017-Nov-18 11:31N 53°39' W 000°12'611.7
2017-Nov-18 11:00N 53°44' W 000°17'0 0.4
2017-Nov-18 10:30N 53°44' W 000°16'0 0.5
2017-Nov-18 10:01N 53°44' W 000°16'0 0.4
2017-Nov-18 09:25N 53°44' W 000°16'0 0.0
2017-Nov-18 08:58N 53°44' W 000°16'0 0.0
2017-Nov-18 08:30N 53°44' W 000°16'0 0.0
2017-Nov-18 08:00N 53°44' W 000°16'0 0.0
2017-Nov-18 07:30N 53°44' W 000°16'0 0.0
2017-Nov-18 07:00N 53°44' W 000°16'0 0.0
2017-Nov-18 06:28N 53°44' W 000°16'0 0.0
2017-Nov-18 05:55N 53°44' W 000°16'0 0.0
2017-Nov-18 05:30N 53°44' W 000°16'0 0.0
2017-Nov-18 05:00N 53°44' W 000°16'0 0.0
2017-Nov-18 04:30N 53°44' W 000°16'0 0.0
2017-Nov-18 04:00N 53°44' W 000°16'0 0.0
2017-Nov-18 03:28N 53°44' W 000°16'0 0.0
2017-Nov-18 02:55N 53°44' W 000°16'0 0.0
2017-Nov-18 02:28N 53°44' W 000°16'0 0.0
2017-Nov-18 01:58N 53°44' W 000°16'0 0.0
2017-Nov-18 01:25N 53°44' W 000°16'0 0.0
2017-Nov-18 00:55N 53°44' W 000°16'0 0.0
2017-Nov-18 00:28N 53°44' W 000°16'0 0.0
2017-Nov-17 23:58N 53°44' W 000°16'0 0.0
2017-Nov-17 23:30N 53°44' W 000°16'0 0.0
2017-Nov-17 23:00N 53°44' W 000°16'0 0.0
2017-Nov-17 22:27N 53°44' W 000°16'0 0.0
2017-Nov-17 21:59N 53°44' W 000°16'0 0.0
2017-Nov-17 21:29N 53°44' W 000°16'0 0.0
2017-Nov-17 21:00N 53°44' W 000°16'0 0.0
2017-Nov-17 20:30N 53°44' W 000°16'0 0.4
2017-Nov-17 20:00N 53°44' W 000°16'0 0.6
2017-Nov-17 19:30N 53°44' W 000°16'1 1.5
2017-Nov-17 19:00N 53°44' W 000°16'1 2.6
2017-Nov-17 18:30N 53°43' W 000°14'2 4.5
2017-Nov-17 18:00N 53°41' W 000°13'4 7.5
2017-Nov-17 17:30N 53°38' W 000°08'5 8.8
2017-Nov-17 16:56N 53°36' W 000°01'54 8.0
2017-Nov-17 10:11N 53°01' E 001°09'210.2
2017-Nov-17 10:00N 53°01' E 001°12'510.4
2017-Nov-17 09:30N 52°59' E 001°20'510.0
2017-Nov-17 09:00N 52°57' E 001°27'5 9.2
2017-Nov-17 08:30N 52°55' E 001°34'4 8.5
2017-Nov-17 08:00N 52°53' E 001°40'4 7.9
2017-Nov-17 07:30N 52°50' E 001°45'4 7.3
2017-Nov-17 07:00N 52°47' E 001°48'4 7.1
2017-Nov-17 06:30N 52°44' E 001°52'4 7.1
2017-Nov-17 06:00N 52°41' E 001°55'10 8.2
2017-Nov-17 04:46N 52°31' E 001°55'3 9.7
2017-Nov-17 04:25N 52°27' E 001°54'1610.7
2017-Nov-17 02:57N 52°12' E 001°52'511.2
2017-Nov-17 02:30N 52°07' E 001°51'611.6
2017-Nov-17 02:00N 52°01' E 001°50'611.5
2017-Nov-17 01:30N 51°55' E 001°49'511.0
2017-Nov-17 01:00N 51°50' E 001°49'1110.6
2017-Nov-16 23:58N 51°39' E 001°50'510.2
2017-Nov-16 23:30N 51°34' E 001°53'510.2
2017-Nov-16 23:01N 51°30' E 001°56'5 9.8
2017-Nov-16 22:30N 51°26' E 002°01'5 9.6
2017-Nov-16 22:00N 51°23' E 002°08'5 9.5
2017-Nov-16 21:30N 51°21' E 002°15'5 9.4
2017-Nov-16 21:00N 51°22' E 002°22'510.7
2017-Nov-16 20:30N 51°23' E 002°31'510.3
2017-Nov-16 20:00N 51°22' E 002°39'5 9.5
2017-Nov-16 19:30N 51°22' E 002°46'511.0
2017-Nov-16 19:00N 51°22' E 002°55'611.2
2017-Nov-16 18:30N 51°22' E 003°04'510.1
2017-Nov-16 18:00N 51°21' E 003°12'1 2.7
2017-Nov-16 17:30N 51°20' E 003°13'0 0.0
2017-Nov-16 17:00N 51°20' E 003°13'0 0.3
2017-Nov-16 16:30N 51°20' E 003°13'1 2.7
2017-Nov-16 16:00N 51°19' E 003°12'3 5.6
2017-Nov-16 15:30N 51°16' E 003°13'2 4.3
2017-Nov-16 15:00N 51°14' E 003°13'0 0.0
2017-Nov-16 14:27N 51°14' E 003°13'0 0.0
2017-Nov-16 14:00N 51°14' E 003°13'0 0.0
2017-Nov-16 13:28N 51°14' E 003°13'0 0.0
2017-Nov-16 12:58N 51°14' E 003°13'0 0.0
2017-Nov-16 12:30N 51°14' E 003°13'0 0.0
2017-Nov-16 12:00N 51°14' E 003°13'0 0.0
2017-Nov-16 11:30N 51°14' E 003°13'0 0.0
2017-Nov-16 11:00N 51°14' E 003°13'0 0.0
2017-Nov-16 10:28N 51°14' E 003°13'0 0.0
2017-Nov-16 09:58N 51°14' E 003°13'0 0.0
2017-Nov-16 09:28N 51°14' E 003°13'0 0.0
2017-Nov-16 08:58N 51°14' E 003°13'0 0.0
2017-Nov-16 08:29N 51°14' E 003°13'0 0.0
2017-Nov-16 07:59N 51°14' E 003°13'0 0.0
2017-Nov-16 07:28N 51°14' E 003°13'0 0.0
2017-Nov-16 06:58N 51°14' E 003°13'0 0.0
2017-Nov-16 06:29N 51°14' E 003°13'0 0.0
2017-Nov-16 06:00N 51°14' E 003°13'0 0.0
2017-Nov-16 05:28N 51°14' E 003°13'0 0.0
2017-Nov-16 05:00N 51°14' E 003°13'0 0.0
2017-Nov-16 04:30N 51°14' E 003°13'0 0.0
2017-Nov-16 03:58N 51°14' E 003°13'0 0.0
2017-Nov-16 03:26N 51°14' E 003°13'0 0.0
2017-Nov-16 03:00N 51°14' E 003°13'0 0.0
2017-Nov-16 02:30N 51°14' E 003°13'0 0.0
2017-Nov-16 02:00N 51°14' E 003°13'0 0.0
2017-Nov-16 01:30N 51°14' E 003°13'0 0.0
2017-Nov-16 01:00N 51°14' E 003°13'0 0.0
2017-Nov-16 00:28N 51°14' E 003°13'0 0.0
2017-Nov-15 23:57N 51°14' E 003°13'0 0.0
2017-Nov-15 23:28N 51°14' E 003°13'0 0.0
2017-Nov-15 23:00N 51°14' E 003°13'0 0.0
2017-Nov-15 22:30N 51°14' E 003°13'0 0.0
2017-Nov-15 22:00N 51°14' E 003°13'0 0.0
2017-Nov-15 21:29N 51°14' E 003°13'0 0.0
2017-Nov-15 20:59N 51°14' E 003°13'0 0.0
2017-Nov-15 20:30N 51°14' E 003°13'0 0.0
2017-Nov-15 19:59N 51°14' E 003°13'0 0.0
2017-Nov-15 19:29N 51°14' E 003°13'0 0.0
2017-Nov-15 18:50N 51°14' E 003°13'0 0.0
2017-Nov-15 18:29N 51°14' E 003°13'0 0.0
2017-Nov-15 18:00N 51°14' E 003°13'0 0.0
2017-Nov-15 17:30N 51°14' E 003°13'0 0.0
2017-Nov-15 16:59N 51°14' E 003°13'0 0.0
2017-Nov-15 16:30N 51°14' E 003°13'0 0.0
2017-Nov-15 15:58N 51°14' E 003°13'0 0.0
2017-Nov-15 15:29N 51°14' E 003°13'0 0.0
2017-Nov-15 15:01N 51°14' E 003°13'2 4.6
2017-Nov-15 14:30N 51°16' E 003°13'1 2.8
2017-Nov-15 14:00N 51°17' E 003°12'2 4.5
2017-Nov-15 13:31N 51°20' E 003°13'0 1.0
2017-Nov-15 13:01N 51°20' E 003°13'1 1.2
2017-Nov-15 12:31N 51°21' E 003°13'4 7.0
2017-Nov-15 12:00N 51°22' E 003°07'611.9
2017-Nov-15 11:30N 51°21' E 002°58'611.8
2017-Nov-15 10:59N 51°22' E 002°48'5 9.6
2017-Nov-15 10:30N 51°21' E 002°41'2 4.0
2017-Nov-15 10:00N 51°21' E 002°37'3 5.0
2017-Nov-15 09:29N 51°22' E 002°33'3 5.5
2017-Nov-15 08:59N 51°22' E 002°29'3 5.3
2017-Nov-15 08:30N 51°21' E 002°25'3 5.2
2017-Nov-15 08:00N 51°19' E 002°21'4 7.2
2017-Nov-15 07:29N 51°18' E 002°16'510.0
2017-Nov-15 07:00N 51°20' E 002°08'510.0
2017-Nov-15 06:30N 51°22' E 002°01'510.0
2017-Nov-15 06:01N 51°24' E 001°54'510.1
2017-Nov-15 05:30N 51°26' E 001°47'510.6
2017-Nov-15 05:01N 51°29' E 001°39'510.4
2017-Nov-15 04:31N 51°29' E 001°31'610.8
2017-Nov-15 04:00N 51°29' E 001°22'611.4
2017-Nov-15 03:30N 51°29' E 001°13'611.3
2017-Nov-15 03:00N 51°29' E 001°04'611.4
2017-Nov-15 02:29N 51°29' E 000°54'5 9.8
2017-Nov-15 01:59N 51°29' E 000°46'613.3
2017-Nov-15 01:31N 51°30' E 000°36'611.8
2017-Nov-15 01:00N 51°28' E 000°27'5 9.6
2017-Nov-15 00:31N 51°27' E 000°20'510.3
2017-Nov-15 00:01N 51°29' E 000°12'1 2.0
2017-Nov-14 23:30N 51°30' E 000°10'0 0.0
2017-Nov-14 22:58N 51°30' E 000°10'0 0.0
2017-Nov-14 22:27N 51°30' E 000°10'0 0.0
2017-Nov-14 21:58N 51°30' E 000°10'0 0.0
2017-Nov-14 21:25N 51°30' E 000°10'0 0.0
2017-Nov-14 20:56N 51°30' E 000°10'0 0.0
2017-Nov-14 20:24N 51°30' E 000°10'0 0.0
2017-Nov-14 20:00N 51°30' E 000°10'0 0.0
2017-Nov-14 19:28N 51°30' E 000°10'0 0.0
2017-Nov-14 18:56N 51°30' E 000°10'0 0.0
2017-Nov-14 18:24N 51°30' E 000°10'0 0.0
2017-Nov-14 18:00N 51°30' E 000°10'0 0.0
2017-Nov-14 17:29N 51°30' E 000°10'0 0.0
2017-Nov-14 16:57N 51°30' E 000°10'0 0.0
2017-Nov-14 16:23N 51°30' E 000°10'0 0.0
2017-Nov-14 16:00N 51°30' E 000°10'0 0.0
2017-Nov-14 15:29N 51°30' E 000°10'0 0.0
2017-Nov-14 14:57N 51°30' E 000°10'0 0.0
2017-Nov-14 14:30N 51°30' E 000°10'0 0.0
2017-Nov-14 13:59N 51°30' E 000°10'0 0.0
2017-Nov-14 13:25N 51°30' E 000°10'0 0.0
2017-Nov-14 12:59N 51°30' E 000°10'0 0.0
2017-Nov-14 12:29N 51°30' E 000°10'0 0.0
2017-Nov-14 12:00N 51°30' E 000°10'31 3.9
2017-Nov-14 04:04N 51°31' E 000°60'0 0.0
2017-Nov-13 00:14N 51°31' E 000°59'3 7.1
2017-Nov-12 23:49N 51°29' E 000°56'3 7.6
2017-Nov-12 23:26N 51°30' E 001°00'3 8.2
2017-Nov-12 23:00N 51°30' E 001°06'4 7.7
2017-Nov-12 22:30N 51°29' E 001°12'4 7.4
2017-Nov-12 21:58N 51°29' E 001°18'3 6.9
2017-Nov-12 21:30N 51°29' E 001°24'4 7.5
2017-Nov-12 21:00N 51°29' E 001°30'4 7.5
2017-Nov-12 20:30N 51°31' E 001°35'4 8.2
2017-Nov-12 20:00N 51°34' E 001°39'4 8.4
2017-Nov-12 19:30N 51°38' E 001°44'5 8.8
2017-Nov-12 18:53N 51°43' E 001°44'4 9.9
2017-Nov-12 18:30N 51°47' E 001°43'5 9.9
2017-Nov-12 18:00N 51°52' E 001°43'510.5
2017-Nov-12 17:30N 51°57' E 001°44'510.9
2017-Nov-12 17:00N 52°02' E 001°46'611.3
2017-Nov-12 16:30N 52°08' E 001°47'1311.4
2017-Nov-12 15:22N 52°21' E 001°51'511.9
2017-Nov-12 14:58N 52°25' E 001°52'611.7
2017-Nov-12 14:28N 52°31' E 001°54'811.4
2017-Nov-12 13:45N 52°39' E 001°56'311.3
2017-Nov-12 13:30N 52°42' E 001°54'511.3
2017-Nov-12 13:01N 52°46' E 001°49'510.7
2017-Nov-12 12:30N 52°50' E 001°43'510.1
2017-Nov-12 12:00N 52°54' E 001°38'5 9.8
2017-Nov-12 11:30N 52°58' E 001°33'5 9.1
2017-Nov-12 11:00N 53°02' E 001°29'4 8.9
2017-Nov-12 10:30N 53°06' E 001°25'4 8.5
2017-Nov-12 10:00N 53°09' E 001°21'4 8.3
2017-Nov-12 09:30N 53°13' E 001°17'57 8.2
2017-Nov-12 02:37N 53°60' E 000°24'1 9.0
2017-Nov-12 02:30N 54°01' E 000°23'4 8.9
2017-Nov-12 02:00N 54°04' E 000°19'5 9.1
2017-Nov-12 01:30N 54°08' E 000°15'5 9.3
2017-Nov-12 01:00N 54°12' E 000°11'5 9.5
2017-Nov-12 00:30N 54°17' E 000°07'5 9.6
2017-Nov-12 00:00N 54°21' E 000°02'510.0
2017-Nov-11 23:31N 54°25' W 000°02'510.0
2017-Nov-11 23:00N 54°29' W 000°06'510.1
2017-Nov-11 22:30N 54°34' W 000°11'510.0
2017-Nov-11 22:00N 54°38' W 000°15'5 9.9
2017-Nov-11 21:28N 54°42' W 000°20'101 9.3
2017-Nov-11 10:40N 56°10' W 001°50'4 9.9
2017-Nov-11 10:16N 56°13' W 001°54'310.1
2017-Nov-11 10:00N 56°15' W 001°56'510.1
2017-Nov-11 09:30N 56°20' W 002°01'610.1
2017-Nov-11 08:54N 56°25' W 002°06'410.1
2017-Nov-11 08:30N 56°28' W 002°10'610.2
2017-Nov-11 07:58N 56°33' W 002°15'  
Track history (hours):
 
Tides and Currents Weather Stations Pressure Air Temp Water Temp Dewpoint Dewpoint Depression Visibility Wind Speed Wind Dir Waves Ship Positions

Pride

Last reported at 2017-Nov-18 12:30 UTC. Time now 2017-Nov-18 14:20 UTC.
Position N 53°35' E 000°03'.

Length 88 m; draft 4.9 m.

Type: Cargo ship. MMSI: 236166000.

Date/timePositionNaut miles runAvg speedWind from/ knotsBaromVisibWave heightAir tempDewpointWater temp
2017-Nov-18 12:30N 53°35' E 000°03'510.2
2017-Nov-18 12:00N 53°37' W 000°05'5 9.8
2017-Nov-18 11:31N 53°39' W 000°12'611.7
2017-Nov-18 11:00N 53°44' W 000°17'0 0.4
2017-Nov-18 10:30N 53°44' W 000°16'0 0.5
2017-Nov-18 10:01N 53°44' W 000°16'0 0.4
2017-Nov-18 09:25N 53°44' W 000°16'0 0.0
2017-Nov-18 08:58N 53°44' W 000°16'0 0.0
2017-Nov-18 08:30N 53°44' W 000°16'0 0.0
2017-Nov-18 08:00N 53°44' W 000°16'0 0.0
2017-Nov-18 07:30N 53°44' W 000°16'0 0.0
2017-Nov-18 07:00N 53°44' W 000°16'0 0.0
2017-Nov-18 06:28N 53°44' W 000°16'0 0.0
2017-Nov-18 05:55N 53°44' W 000°16'0 0.0
2017-Nov-18 05:30N 53°44' W 000°16'0 0.0
2017-Nov-18 05:00N 53°44' W 000°16'0 0.0
2017-Nov-18 04:30N 53°44' W 000°16'0 0.0
2017-Nov-18 04:00N 53°44' W 000°16'0 0.0
2017-Nov-18 03:28N 53°44' W 000°16'0 0.0
2017-Nov-18 02:55N 53°44' W 000°16'0 0.0
2017-Nov-18 02:28N 53°44' W 000°16'0 0.0
2017-Nov-18 01:58N 53°44' W 000°16'0 0.0
2017-Nov-18 01:25N 53°44' W 000°16'0 0.0
2017-Nov-18 00:55N 53°44' W 000°16'0 0.0
2017-Nov-18 00:28N 53°44' W 000°16'0 0.0
2017-Nov-17 23:58N 53°44' W 000°16'0 0.0
2017-Nov-17 23:30N 53°44' W 000°16'0 0.0
2017-Nov-17 23:00N 53°44' W 000°16'0 0.0
2017-Nov-17 22:27N 53°44' W 000°16'0 0.0
2017-Nov-17 21:59N 53°44' W 000°16'0 0.0
2017-Nov-17 21:29N 53°44' W 000°16'0 0.0
2017-Nov-17 21:00N 53°44' W 000°16'0 0.0
2017-Nov-17 20:30N 53°44' W 000°16'0 0.4
2017-Nov-17 20:00N 53°44' W 000°16'0 0.6
2017-Nov-17 19:30N 53°44' W 000°16'1 1.5
2017-Nov-17 19:00N 53°44' W 000°16'1 2.6
2017-Nov-17 18:30N 53°43' W 000°14'2 4.5
2017-Nov-17 18:00N 53°41' W 000°13'4 7.5
2017-Nov-17 17:30N 53°38' W 000°08'5 8.8
2017-Nov-17 16:56N 53°36' W 000°01'54 8.0
2017-Nov-17 10:11N 53°01' E 001°09'210.2
2017-Nov-17 10:00N 53°01' E 001°12'510.4
2017-Nov-17 09:30N 52°59' E 001°20'510.0
2017-Nov-17 09:00N 52°57' E 001°27'5 9.2
2017-Nov-17 08:30N 52°55' E 001°34'4 8.5
2017-Nov-17 08:00N 52°53' E 001°40'4 7.9
2017-Nov-17 07:30N 52°50' E 001°45'4 7.3
2017-Nov-17 07:00N 52°47' E 001°48'4 7.1
2017-Nov-17 06:30N 52°44' E 001°52'4 7.1
2017-Nov-17 06:00N 52°41' E 001°55'10 8.2
2017-Nov-17 04:46N 52°31' E 001°55'3 9.7
2017-Nov-17 04:25N 52°27' E 001°54'1610.7
2017-Nov-17 02:57N 52°12' E 001°52'511.2
2017-Nov-17 02:30N 52°07' E 001°51'611.6
2017-Nov-17 02:00N 52°01' E 001°50'611.5
2017-Nov-17 01:30N 51°55' E 001°49'511.0
2017-Nov-17 01:00N 51°50' E 001°49'1110.6
2017-Nov-16 23:58N 51°39' E 001°50'510.2
2017-Nov-16 23:30N 51°34' E 001°53'510.2
2017-Nov-16 23:01N 51°30' E 001°56'5 9.8
2017-Nov-16 22:30N 51°26' E 002°01'5 9.6
2017-Nov-16 22:00N 51°23' E 002°08'5 9.5
2017-Nov-16 21:30N 51°21' E 002°15'5 9.4
2017-Nov-16 21:00N 51°22' E 002°22'510.7
2017-Nov-16 20:30N 51°23' E 002°31'510.3
2017-Nov-16 20:00N 51°22' E 002°39'5 9.5
2017-Nov-16 19:30N 51°22' E 002°46'511.0
2017-Nov-16 19:00N 51°22' E 002°55'611.2
2017-Nov-16 18:30N 51°22' E 003°04'510.1
2017-Nov-16 18:00N 51°21' E 003°12'1 2.7
2017-Nov-16 17:30N 51°20' E 003°13'0 0.0
2017-Nov-16 17:00N 51°20' E 003°13'0 0.3
2017-Nov-16 16:30N 51°20' E 003°13'1 2.7
2017-Nov-16 16:00N 51°19' E 003°12'3 5.6
2017-Nov-16 15:30N 51°16' E 003°13'2 4.3
2017-Nov-16 15:00N 51°14' E 003°13'0 0.0
2017-Nov-16 14:27N 51°14' E 003°13'0 0.0
2017-Nov-16 14:00N 51°14' E 003°13'0 0.0
2017-Nov-16 13:28N 51°14' E 003°13'0 0.0
2017-Nov-16 12:58N 51°14' E 003°13'0 0.0
2017-Nov-16 12:30N 51°14' E 003°13'0 0.0
2017-Nov-16 12:00N 51°14' E 003°13'0 0.0
2017-Nov-16 11:30N 51°14' E 003°13'0 0.0
2017-Nov-16 11:00N 51°14' E 003°13'0 0.0
2017-Nov-16 10:28N 51°14' E 003°13'0 0.0
2017-Nov-16 09:58N 51°14' E 003°13'0 0.0
2017-Nov-16 09:28N 51°14' E 003°13'0 0.0
2017-Nov-16 08:58N 51°14' E 003°13'0 0.0
2017-Nov-16 08:29N 51°14' E 003°13'0 0.0
2017-Nov-16 07:59N 51°14' E 003°13'0 0.0
2017-Nov-16 07:28N 51°14' E 003°13'0 0.0
2017-Nov-16 06:58N 51°14' E 003°13'0 0.0
2017-Nov-16 06:29N 51°14' E 003°13'0 0.0
2017-Nov-16 06:00N 51°14' E 003°13'0 0.0
2017-Nov-16 05:28N 51°14' E 003°13'0 0.0
2017-Nov-16 05:00N 51°14' E 003°13'0 0.0
2017-Nov-16 04:30N 51°14' E 003°13'0 0.0
2017-Nov-16 03:58N 51°14' E 003°13'0 0.0
2017-Nov-16 03:26N 51°14' E 003°13'0 0.0
2017-Nov-16 03:00N 51°14' E 003°13'0 0.0
2017-Nov-16 02:30N 51°14' E 003°13'0 0.0
2017-Nov-16 02:00N 51°14' E 003°13'0 0.0
2017-Nov-16 01:30N 51°14' E 003°13'0 0.0
2017-Nov-16 01:00N 51°14' E 003°13'0 0.0
2017-Nov-16 00:28N 51°14' E 003°13'0 0.0
2017-Nov-15 23:57N 51°14' E 003°13'0 0.0
2017-Nov-15 23:28N 51°14' E 003°13'0 0.0
2017-Nov-15 23:00N 51°14' E 003°13'0 0.0
2017-Nov-15 22:30N 51°14' E 003°13'0 0.0
2017-Nov-15 22:00N 51°14' E 003°13'0 0.0
2017-Nov-15 21:29N 51°14' E 003°13'0 0.0
2017-Nov-15 20:59N 51°14' E 003°13'0 0.0
2017-Nov-15 20:30N 51°14' E 003°13'0 0.0
2017-Nov-15 19:59N 51°14' E 003°13'0 0.0
2017-Nov-15 19:29N 51°14' E 003°13'0 0.0
2017-Nov-15 18:50N 51°14' E 003°13'0 0.0
2017-Nov-15 18:29N 51°14' E 003°13'0 0.0
2017-Nov-15 18:00N 51°14' E 003°13'0 0.0
2017-Nov-15 17:30N 51°14' E 003°13'0 0.0
2017-Nov-15 16:59N 51°14' E 003°13'0 0.0
2017-Nov-15 16:30N 51°14' E 003°13'0 0.0
2017-Nov-15 15:58N 51°14' E 003°13'0 0.0
2017-Nov-15 15:29N 51°14' E 003°13'0 0.0
2017-Nov-15 15:01N 51°14' E 003°13'2 4.6
2017-Nov-15 14:30N 51°16' E 003°13'1 2.8
2017-Nov-15 14:00N 51°17' E 003°12'2 4.5
2017-Nov-15 13:31N 51°20' E 003°13'0 1.0
2017-Nov-15 13:01N 51°20' E 003°13'1 1.2
2017-Nov-15 12:31N 51°21' E 003°13'4 7.0
2017-Nov-15 12:00N 51°22' E 003°07'611.9
2017-Nov-15 11:30N 51°21' E 002°58'611.8
2017-Nov-15 10:59N 51°22' E 002°48'5 9.6
2017-Nov-15 10:30N 51°21' E 002°41'2 4.0
2017-Nov-15 10:00N 51°21' E 002°37'3 5.0
2017-Nov-15 09:29N 51°22' E 002°33'3 5.5
2017-Nov-15 08:59N 51°22' E 002°29'3 5.3
2017-Nov-15 08:30N 51°21' E 002°25'3 5.2
2017-Nov-15 08:00N 51°19' E 002°21'4 7.2
2017-Nov-15 07:29N 51°18' E 002°16'510.0
2017-Nov-15 07:00N 51°20' E 002°08'510.0
2017-Nov-15 06:30N 51°22' E 002°01'510.0
2017-Nov-15 06:01N 51°24' E 001°54'510.1
2017-Nov-15 05:30N 51°26' E 001°47'510.6
2017-Nov-15 05:01N 51°29' E 001°39'510.4
2017-Nov-15 04:31N 51°29' E 001°31'610.8
2017-Nov-15 04:00N 51°29' E 001°22'611.4
2017-Nov-15 03:30N 51°29' E 001°13'611.3
2017-Nov-15 03:00N 51°29' E 001°04'611.4
2017-Nov-15 02:29N 51°29' E 000°54'5 9.8
2017-Nov-15 01:59N 51°29' E 000°46'613.3
2017-Nov-15 01:31N 51°30' E 000°36'611.8
2017-Nov-15 01:00N 51°28' E 000°27'5 9.6
2017-Nov-15 00:31N 51°27' E 000°20'510.3
2017-Nov-15 00:01N 51°29' E 000°12'1 2.0
2017-Nov-14 23:30N 51°30' E 000°10'0 0.0
2017-Nov-14 22:58N 51°30' E 000°10'0 0.0
2017-Nov-14 22:27N 51°30' E 000°10'0 0.0
2017-Nov-14 21:58N 51°30' E 000°10'0 0.0
2017-Nov-14 21:25N 51°30' E 000°10'0 0.0
2017-Nov-14 20:56N 51°30' E 000°10'0 0.0
2017-Nov-14 20:24N 51°30' E 000°10'0 0.0
2017-Nov-14 20:00N 51°30' E 000°10'0 0.0
2017-Nov-14 19:28N 51°30' E 000°10'0 0.0
2017-Nov-14 18:56N 51°30' E 000°10'0 0.0
2017-Nov-14 18:24N 51°30' E 000°10'0 0.0
2017-Nov-14 18:00N 51°30' E 000°10'0 0.0
2017-Nov-14 17:29N 51°30' E 000°10'0 0.0
2017-Nov-14 16:57N 51°30' E 000°10'0 0.0
2017-Nov-14 16:23N 51°30' E 000°10'0 0.0
2017-Nov-14 16:00N 51°30' E 000°10'0 0.0
2017-Nov-14 15:29N 51°30' E 000°10'0 0.0
2017-Nov-14 14:57N 51°30' E 000°10'0 0.0
2017-Nov-14 14:30N 51°30' E 000°10'0 0.0
2017-Nov-14 13:59N 51°30' E 000°10'0 0.0
2017-Nov-14 13:25N 51°30' E 000°10'0 0.0
2017-Nov-14 12:59N 51°30' E 000°10'0 0.0
2017-Nov-14 12:29N 51°30' E 000°10'0 0.0
2017-Nov-14 12:00N 51°30' E 000°10'31 3.9
2017-Nov-14 04:04N 51°31' E 000°60'0 0.0
2017-Nov-13 00:14N 51°31' E 000°59'3 7.1
2017-Nov-12 23:49N 51°29' E 000°56'3 7.6
2017-Nov-12 23:26N 51°30' E 001°00'3 8.2
2017-Nov-12 23:00N 51°30' E 001°06'4 7.7
2017-Nov-12 22:30N 51°29' E 001°12'4 7.4
2017-Nov-12 21:58N 51°29' E 001°18'3 6.9
2017-Nov-12 21:30N 51°29' E 001°24'4 7.5
2017-Nov-12 21:00N 51°29' E 001°30'4 7.5
2017-Nov-12 20:30N 51°31' E 001°35'4 8.2
2017-Nov-12 20:00N 51°34' E 001°39'4 8.4
2017-Nov-12 19:30N 51°38' E 001°44'5 8.8
2017-Nov-12 18:53N 51°43' E 001°44'4 9.9
2017-Nov-12 18:30N 51°47' E 001°43'5 9.9
2017-Nov-12 18:00N 51°52' E 001°43'510.5
2017-Nov-12 17:30N 51°57' E 001°44'510.9
2017-Nov-12 17:00N 52°02' E 001°46'611.3
2017-Nov-12 16:30N 52°08' E 001°47'1311.4
2017-Nov-12 15:22N 52°21' E 001°51'511.9
2017-Nov-12 14:58N 52°25' E 001°52'611.7
2017-Nov-12 14:28N 52°31' E 001°54'811.4
2017-Nov-12 13:45N 52°39' E 001°56'311.3
2017-Nov-12 13:30N 52°42' E 001°54'511.3
2017-Nov-12 13:01N 52°46' E 001°49'510.7
2017-Nov-12 12:30N 52°50' E 001°43'510.1
2017-Nov-12 12:00N 52°54' E 001°38'5 9.8
2017-Nov-12 11:30N 52°58' E 001°33'5 9.1
2017-Nov-12 11:00N 53°02' E 001°29'4 8.9
2017-Nov-12 10:30N 53°06' E 001°25'4 8.5
2017-Nov-12 10:00N 53°09' E 001°21'4 8.3
2017-Nov-12 09:30N 53°13' E 001°17'57 8.2
2017-Nov-12 02:37N 53°60' E 000°24'1 9.0
2017-Nov-12 02:30N 54°01' E 000°23'4 8.9
2017-Nov-12 02:00N 54°04' E 000°19'5 9.1
2017-Nov-12 01:30N 54°08' E 000°15'5 9.3
2017-Nov-12 01:00N 54°12' E 000°11'5 9.5
2017-Nov-12 00:30N 54°17' E 000°07'5 9.6
2017-Nov-12 00:00N 54°21' E 000°02'510.0
2017-Nov-11 23:31N 54°25' W 000°02'510.0
2017-Nov-11 23:00N 54°29' W 000°06'510.1
2017-Nov-11 22:30N 54°34' W 000°11'510.0
2017-Nov-11 22:00N 54°38' W 000°15'5 9.9
2017-Nov-11 21:28N 54°42' W 000°20'101 9.3
2017-Nov-11 10:40N 56°10' W 001°50'4 9.9
2017-Nov-11 10:16N 56°13' W 001°54'310.1
2017-Nov-11 10:00N 56°15' W 001°56'510.1
2017-Nov-11 09:30N 56°20' W 002°01'610.1
2017-Nov-11 08:54N 56°25' W 002°06'410.1
2017-Nov-11 08:30N 56°28' W 002°10'610.2
2017-Nov-11 07:58N 56°33' W 002°15'  

Dump ship's entire track history